Time;durP1;ratioP1;P1;durP2;ratioP2;P2;SDS_P1;SDS_P2;PMS_P1;PMS_P2;Temp;Humidity;BMP_temperature;BMP_pressure;BME280_temperature;BME280_humidity;BME280_pressure;Samples;Min_cycle;Max_cycle;Signal;HPM_P1;HPM_P2
2021/01/27 00:00:11;;;;;;;16.13;10.90;;;;;;;;;;5073216;28;20458;-74
2021/01/27 00:02:38;;;;;;;19.40;11.60;;;;;;;;;;5055383;28;20466;-74
2021/01/27 00:05:07;;;;;;;17.67;11.93;;;;;;;;;;5056125;28;20507;-73
2021/01/27 00:07:34;;;;;;;18.13;12.17;;;;;;;;;;5063107;28;20445;-74
2021/01/27 00:10:01;;;;;;;20.77;11.70;;;;;;;;;;5060047;28;20454;-74
2021/01/27 00:12:29;;;;;;;17.27;11.93;;;;;;;;;;5056574;28;20462;-74
2021/01/27 00:14:58;;;;;;;15.63;12.07;;;;;;;;;;5060742;28;20515;-74
2021/01/27 00:17:25;;;;;;;21.47;12.10;;;;;;;;;;5076375;28;20510;-74
2021/01/27 00:19:53;;;;;;;20.93;11.43;;;;;;;;;;5076006;28;20460;-74
2021/01/27 00:22:20;;;;;;;22.60;13.20;;;;;;;;;;5072096;28;20446;-74
2021/01/27 00:24:47;;;;;;;18.20;11.50;;;;;;;;;;5055753;28;20497;-74
2021/01/27 00:27:15;;;;;;;16.47;11.40;;;;;;;;;;5056284;28;20472;-74
2021/01/27 00:29:43;;;;;;;15.70;11.63;;;;;;;;;;5056524;28;20458;-74
2021/01/27 00:32:11;;;;;;;17.07;12.50;;;;;;;;;;5068488;28;20479;-74
2021/01/27 00:34:38;;;;;;;16.97;11.93;;;;;;;;;;5076062;28;20917;-74
2021/01/27 00:37:06;;;;;;;17.27;10.83;;;;;;;;;;5063340;28;20861;-74
2021/01/27 00:39:34;;;;;;;23.50;12.17;;;;;;;;;;5056555;28;20458;-76
2021/01/27 00:42:07;;;;;;;24.03;13.70;;;;;;;;;;5060248;28;20449;-75
2021/01/27 00:44:39;;;;;;;17.20;10.87;;;;;;;;;;5066141;28;20478;-76
2021/01/27 00:47:26;;;;;;;17.37;11.90;;;;;;;;;;5056445;28;20606;-75
2021/01/27 00:49:55;;;;;;;18.47;11.53;;;;;;;;;;5055722;28;20485;-76
2021/01/27 00:52:23;;;;;;;18.10;12.17;;;;;;;;;;5056219;28;20465;-75
2021/01/27 00:54:51;;;;;;;21.27;12.33;;;;;;;;;;5072812;28;20489;-76
2021/01/27 00:57:18;;;;;;;18.50;10.97;;;;;;;;;;5076013;28;20453;-76
2021/01/27 00:59:49;;;;;;;20.27;12.50;;;;;;;;;;5067767;28;20493;-76
2021/01/27 01:02:18;;;;;;;17.73;11.50;;;;;;;;;;5056655;28;20476;-76
2021/01/27 01:04:46;;;;;;;21.70;12.03;;;;;;;;;;5056636;28;20481;-75
2021/01/27 01:07:19;;;;;;;18.90;12.00;;;;;;;;;;5063248;28;20733;-76
2021/01/27 01:09:47;;;;;;;16.03;10.73;;;;;;;;;;5074016;28;20495;-76
2021/01/27 01:12:17;;;;;;;22.77;12.80;;;;;;;;;;5076359;28;20445;-75
2021/01/27 01:14:44;;;;;;;15.83;10.77;;;;;;;;;;5077982;28;20506;-75
2021/01/27 01:17:11;;;;;;;16.00;10.43;;;;;;;;;;5079494;28;20465;-75
2021/01/27 01:19:39;;;;;;;18.90;12.50;;;;;;;;;;5063584;28;20792;-73
2021/01/27 01:22:07;;;;;;;17.47;12.07;;;;;;;;;;5065207;28;20449;-73
2021/01/27 01:24:35;;;;;;;18.20;12.20;;;;;;;;;;5079812;28;20569;-73
2021/01/27 01:27:02;;;;;;;16.83;9.73;;;;;;;;;;5077290;28;20932;-73
2021/01/27 01:29:30;;;;;;;17.50;10.40;;;;;;;;;;5060038;28;20490;-73
2021/01/27 01:32:00;;;;;;;23.13;12.40;;;;;;;;;;5071916;28;20803;-73
2021/01/27 01:34:28;;;;;;;17.10;11.40;;;;;;;;;;5079898;28;20755;-73
2021/01/27 01:36:55;;;;;;;14.57;10.00;;;;;;;;;;5079467;28;20459;-73
2021/01/27 01:39:25;;;;;;;24.10;11.13;;;;;;;;;;5080385;28;20460;-74
2021/01/27 01:41:53;;;;;;;19.77;12.17;;;;;;;;;;5078412;28;20465;-74
2021/01/27 01:44:20;;;;;;;16.30;11.40;;;;;;;;;;5059209;28;20572;-74
2021/01/27 01:46:47;;;;;;;17.30;12.13;;;;;;;;;;5058948;28;20465;-74
2021/01/27 01:49:17;;;;;;;19.97;12.37;;;;;;;;;;5059020;28;20462;-74
2021/01/27 01:51:47;;;;;;;17.97;12.53;;;;;;;;;;5059041;28;20458;-75
2021/01/27 01:54:18;;;;;;;19.87;12.40;;;;;;;;;;5069335;28;20454;-75
2021/01/27 01:56:51;;;;;;;20.60;11.87;;;;;;;;;;5078515;28;20461;-74
2021/01/27 01:59:18;;;;;;;19.27;11.60;;;;;;;;;;5078641;28;20781;-75
2021/01/27 02:01:51;;;;;;;19.20;12.03;;;;;;;;;;5078870;28;20555;-73
2021/01/27 02:04:21;;;;;;;18.83;13.20;;;;;;;;;;5079148;28;20481;-74
2021/01/27 02:06:49;;;;;;;20.10;12.87;;;;;;;;;;5075232;28;20458;-75
2021/01/27 02:09:17;;;;;;;22.90;14.40;;;;;;;;;;5059327;28;20524;-74
2021/01/27 02:11:53;;;;;;;21.60;14.93;;;;;;;;;;5063077;28;20535;-74
2021/01/27 02:14:28;;;;;;;23.10;13.93;;;;;;;;;;5058978;28;20842;-74
2021/01/27 02:17:00;;;;;;;23.60;13.40;;;;;;;;;;5058615;28;20541;-74
2021/01/27 02:19:42;;;;;;;27.40;14.10;;;;;;;;;;5060683;28;20863;-74
2021/01/27 02:22:28;;;;;;;23.30;14.20;;;;;;;;;;5053111;28;20456;-73
2021/01/27 02:25:28;;;;;;;21.50;13.33;;;;;;;;;;5058227;28;20539;-74
2021/01/27 02:27:57;;;;;;;24.27;13.77;;;;;;;;;;4989171;28;20462;-74
2021/01/27 02:30:41;;;;;;;19.03;13.20;;;;;;;;;;4997957;28;20463;-74
2021/01/27 02:33:19;;;;;;;22.00;13.50;;;;;;;;;;5038698;28;20874;-75
2021/01/27 02:35:50;;;;;;;20.50;12.87;;;;;;;;;;5075907;28;20907;-75
2021/01/27 02:38:21;;;;;;;22.83;14.67;;;;;;;;;;5077659;28;20445;-74
2021/01/27 02:40:49;;;;;;;19.33;13.10;;;;;;;;;;5078356;28;20454;-75
2021/01/27 02:43:21;;;;;;;23.53;13.60;;;;;;;;;;5077703;28;20450;-74
2021/01/27 02:45:51;;;;;;;23.47;14.90;;;;;;;;;;5074160;28;20539;-74
2021/01/27 02:48:22;;;;;;;24.47;14.27;;;;;;;;;;5075565;28;20460;-74
2021/01/27 02:50:53;;;;;;;20.80;13.30;;;;;;;;;;5092297;28;20946;-74
2021/01/27 02:53:22;;;;;;;21.13;12.73;;;;;;;;;;5080338;28;20441;-74
2021/01/27 02:55:53;;;;;;;24.17;14.47;;;;;;;;;;5075747;28;20530;-74
2021/01/27 02:58:23;;;;;;;22.73;14.13;;;;;;;;;;5058060;28;20888;-74
2021/01/27 03:00:55;;;;;;;18.53;12.93;;;;;;;;;;5057711;28;20656;-74
2021/01/27 03:03:24;;;;;;;18.60;11.87;;;;;;;;;;5058755;28;20462;-74
2021/01/27 03:05:54;;;;;;;24.83;14.47;;;;;;;;;;5061042;28;20485;-74
2021/01/27 03:08:23;;;;;;;21.37;13.27;;;;;;;;;;5077550;28;20445;-74
2021/01/27 03:10:55;;;;;;;22.67;13.30;;;;;;;;;;5077905;28;20553;-73
2021/01/27 03:13:23;;;;;;;22.03;13.60;;;;;;;;;;5063521;28;20454;-73
2021/01/27 03:15:51;;;;;;;26.00;13.37;;;;;;;;;;5070263;28;20461;-73
2021/01/27 03:18:19;;;;;;;19.17;12.40;;;;;;;;;;5076663;28;20453;-74
2021/01/27 03:20:48;;;;;;;20.13;12.47;;;;;;;;;;5065192;28;20530;-74
2021/01/27 03:23:18;;;;;;;18.80;12.93;;;;;;;;;;5057465;28;20594;-73
2021/01/27 03:25:48;;;;;;;22.43;12.40;;;;;;;;;;5075489;28;20909;-73
2021/01/27 03:28:20;;;;;;;22.10;13.97;;;;;;;;;;5076690;28;20449;-73
2021/01/27 03:30:50;;;;;;;19.57;13.10;;;;;;;;;;5077450;28;20469;-75
2021/01/27 03:33:19;;;;;;;21.43;13.27;;;;;;;;;;5076393;28;20507;-73
2021/01/27 03:35:48;;;;;;;20.37;14.03;;;;;;;;;;5077209;28;20562;-73
2021/01/27 03:38:24;;;;;;;22.70;14.30;;;;;;;;;;5076145;28;20457;-74
2021/01/27 03:40:54;;;;;;;19.47;12.70;;;;;;;;;;5076942;28;20476;-74
2021/01/27 03:43:25;;;;;;;25.00;16.00;;;;;;;;;;5075175;28;20858;-75
2021/01/27 03:45:56;;;;;;;26.60;15.93;;;;;;;;;;5075182;28;20971;-75
2021/01/27 03:48:27;;;;;;;25.07;15.37;;;;;;;;;;5077059;28;20476;-74
2021/01/27 03:50:56;;;;;;;26.93;16.60;;;;;;;;;;5076874;28;20472;-75
2021/01/27 03:53:26;;;;;;;29.00;15.93;;;;;;;;;;5076054;28;20902;-74
2021/01/27 03:55:57;;;;;;;27.50;16.10;;;;;;;;;;5077121;28;20587;-74
2021/01/27 03:58:26;;;;;;;28.83;17.60;;;;;;;;;;5077106;28;20464;-75
2021/01/27 04:01:00;;;;;;;26.40;16.97;;;;;;;;;;5076980;28;20460;-74
2021/01/27 04:03:27;;;;;;;34.23;19.70;;;;;;;;;;5070571;28;20445;-75
2021/01/27 04:05:55;;;;;;;38.07;19.50;;;;;;;;;;5056381;28;20477;-74
2021/01/27 04:08:22;;;;;;;33.63;20.90;;;;;;;;;;5056577;28;20450;-74
2021/01/27 04:10:51;;;;;;;36.03;19.03;;;;;;;;;;5056790;28;20457;-74
2021/01/27 04:13:18;;;;;;;35.73;19.50;;;;;;;;;;5072188;28;20460;-74
2021/01/27 04:15:50;;;;;;;32.90;18.90;;;;;;;;;;5071305;28;20464;-74
2021/01/27 04:18:17;;;;;;;34.30;19.40;;;;;;;;;;5066564;28;20585;-74
2021/01/27 04:20:44;;;;;;;29.50;18.10;;;;;;;;;;5064036;28;20467;-74
2021/01/27 04:23:12;;;;;;;39.63;20.00;;;;;;;;;;5063681;28;20457;-74
2021/01/27 04:25:39;;;;;;;30.43;17.60;;;;;;;;;;5076400;28;20553;-73
2021/01/27 04:28:08;;;;;;;33.17;20.83;;;;;;;;;;5076040;28;20888;-74
2021/01/27 04:30:36;;;;;;;34.10;21.17;;;;;;;;;;5074593;28;20457;-74
2021/01/27 04:33:05;;;;;;;37.70;21.20;;;;;;;;;;5076433;28;20457;-73
2021/01/27 04:35:33;;;;;;;34.40;21.70;;;;;;;;;;5076206;28;20465;-73
2021/01/27 04:38:01;;;;;;;39.77;22.77;;;;;;;;;;5076065;28;20904;-73
2021/01/27 04:40:33;;;;;;;37.50;19.90;;;;;;;;;;5076347;28;20461;-73
2021/01/27 04:43:00;;;;;;;41.87;22.30;;;;;;;;;;5070281;28;20454;-74
2021/01/27 04:45:29;;;;;;;40.57;23.63;;;;;;;;;;5055774;28;20486;-73
2021/01/27 04:47:58;;;;;;;44.00;24.27;;;;;;;;;;5065196;28;20899;-73
2021/01/27 04:50:31;;;;;;;38.60;20.77;;;;;;;;;;5075524;28;20473;-74
2021/01/27 04:53:02;;;;;;;35.20;21.70;;;;;;;;;;5064308;28;20518;-73
2021/01/27 04:55:39;;;;;;;39.10;21.67;;;;;;;;;;5078960;28;20452;-73
2021/01/27 04:58:13;;;;;;;37.93;22.03;;;;;;;;;;5072140;28;20445;-73
2021/01/27 05:00:51;;;;;;;39.70;21.63;;;;;;;;;;5059904;28;20457;-72
2021/01/27 05:03:36;;;;;;;39.20;23.00;;;;;;;;;;5076304;28;20448;-72
2021/01/27 05:06:05;;;;;;;43.73;22.00;;;;;;;;;;5074839;28;20525;-73
2021/01/27 05:08:36;;;;;;;38.57;22.93;;;;;;;;;;5070837;28;20450;-72
2021/01/27 05:11:05;;;;;;;40.03;23.17;;;;;;;;;;5062266;28;20451;-73
2021/01/27 05:13:33;;;;;;;44.77;21.57;;;;;;;;;;5061807;28;20454;-73
2021/01/27 05:16:05;;;;;;;40.20;24.30;;;;;;;;;;5062767;28;20461;-73
2021/01/27 05:18:32;;;;;;;48.97;24.03;;;;;;;;;;5072621;28;20440;-73
2021/01/27 05:21:00;;;;;;;44.30;25.83;;;;;;;;;;5082094;28;20475;-73
2021/01/27 05:23:28;;;;;;;43.17;23.97;;;;;;;;;;5079852;28;20453;-72
2021/01/27 05:26:01;;;;;;;42.60;23.17;;;;;;;;;;5070396;28;20593;-72
2021/01/27 05:28:31;;;;;;;43.70;26.90;;;;;;;;;;5070463;28;20449;-72
2021/01/27 05:31:00;;;;;;;42.83;25.87;;;;;;;;;;5077929;28;20464;-72
2021/01/27 05:33:52;;;;;;;47.00;24.20;;;;;;;;;;5065948;28;20465;-73
2021/01/27 05:36:21;;;;;;;45.67;23.53;;;;;;;;;;5039707;28;20462;-72
2021/01/27 05:38:50;;;;;;;42.10;25.20;;;;;;;;;;5059284;28;20457;-73
2021/01/27 05:41:21;;;;;;;54.63;26.37;;;;;;;;;;5059305;28;20503;-73
2021/01/27 05:43:49;;;;;;;43.50;26.93;;;;;;;;;;5073303;28;20817;-72
2021/01/27 05:46:18;;;;;;;43.03;26.40;;;;;;;;;;5074769;28;20465;-73
2021/01/27 05:48:48;;;;;;;48.40;25.00;;;;;;;;;;5058916;28;20454;-73
2021/01/27 05:51:20;;;;;;;42.80;25.10;;;;;;;;;;5059175;28;20462;-73
2021/01/27 05:53:48;;;;;;;42.33;24.40;;;;;;;;;;5060379;28;20526;-73
2021/01/27 05:56:17;;;;;;;49.60;25.20;;;;;;;;;;5069421;28;20465;-73
2021/01/27 05:58:47;;;;;;;48.00;26.30;;;;;;;;;;5079094;28;20473;-73
2021/01/27 06:01:20;;;;;;;47.43;25.53;;;;;;;;;;5076633;28;20465;-73
2021/01/27 06:03:59;;;;;;;44.57;26.37;;;;;;;;;;5063965;28;20461;-73
2021/01/27 06:06:56;;;;;;;48.07;28.20;;;;;;;;;;5058363;28;20465;-73
2021/01/27 06:09:34;;;;;;;44.47;24.53;;;;;;;;;;5058112;28;20454;-72
2021/01/27 06:12:02;;;;;;;45.27;24.03;;;;;;;;;;5077557;28;21063;-74
2021/01/27 06:14:30;;;;;;;45.73;24.33;;;;;;;;;;5077465;28;20515;-72
2021/01/27 06:16:57;;;;;;;48.13;26.10;;;;;;;;;;5059028;28;20451;-72
2021/01/27 06:19:25;;;;;;;57.03;27.27;;;;;;;;;;5058011;28;20450;-73
2021/01/27 06:22:15;;;;;;;44.43;23.90;;;;;;;;;;5075054;28;20461;-73
2021/01/27 06:24:47;;;;;;;48.27;24.70;;;;;;;;;;5077884;28;20500;-73
2021/01/27 06:27:35;;;;;;;49.90;28.10;;;;;;;;;;5072810;28;20448;-73
2021/01/27 06:30:10;;;;;;;48.00;27.90;;;;;;;;;;5070451;28;20541;-73
2021/01/27 06:32:49;;;;;;;48.17;24.30;;;;;;;;;;5066077;28;20456;-72
2021/01/27 06:35:21;;;;;;;56.63;27.40;;;;;;;;;;5057238;28;20451;-72
2021/01/27 06:38:03;;;;;;;46.03;25.17;;;;;;;;;;5071317;28;20448;-72
2021/01/27 06:40:33;;;;;;;46.40;26.10;;;;;;;;;;5074556;28;20807;-73
2021/01/27 06:43:14;;;;;;;44.93;27.67;;;;;;;;;;5075988;28;20448;-73
2021/01/27 06:45:45;;;;;;;44.40;27.00;;;;;;;;;;5075780;28;20485;-73
2021/01/27 06:48:20;;;;;;;51.93;28.30;;;;;;;;;;5057192;28;20462;-73
2021/01/27 06:50:59;;;;;;;50.43;28.97;;;;;;;;;;5055858;28;20535;-73
2021/01/27 06:53:35;;;;;;;54.93;26.37;;;;;;;;;;5057440;28;20730;-73
2021/01/27 06:56:17;;;;;;;46.47;25.83;;;;;;;;;;5061672;28;20437;-73
2021/01/27 06:59:10;;;;;;;45.30;26.83;;;;;;;;;;5077459;28;20452;-73
2021/01/27 07:01:48;;;;;;;48.43;27.37;;;;;;;;;;5067032;28;20885;-73
2021/01/27 07:04:39;;;;;;;48.20;27.63;;;;;;;;;;5056945;28;20862;-74
2021/01/27 07:07:21;;;;;;;44.50;26.57;;;;;;;;;;5049335;28;20855;-73
2021/01/27 07:10:04;;;;;;;42.37;25.93;;;;;;;;;;5052937;28;20853;-73
2021/01/27 07:12:34;;;;;;;40.83;24.70;;;;;;;;;;5055164;28;20465;-73
2021/01/27 07:15:16;;;;;;;47.90;26.50;;;;;;;;;;5070325;28;20441;-73
2021/01/27 07:18:01;;;;;;;45.87;27.47;;;;;;;;;;5073176;28;20465;-73
2021/01/27 07:20:34;;;;;;;49.70;27.13;;;;;;;;;;5036270;28;20445;-73
2021/01/27 07:23:05;;;;;;;35.93;24.37;;;;;;;;;;5075841;28;20463;-73
2021/01/27 07:25:45;;;;;;;47.83;26.13;;;;;;;;;;5072387;28;20577;-73
2021/01/27 07:28:16;;;;;;;38.33;25.33;;;;;;;;;;5076994;28;20457;-72
2021/01/27 07:30:51;;;;;;;44.33;25.20;;;;;;;;;;5075425;28;20453;-72
2021/01/27 07:33:21;;;;;;;47.33;26.03;;;;;;;;;;5075847;28;20746;-71
2021/01/27 07:35:55;;;;;;;41.53;24.40;;;;;;;;;;5067958;28;20446;-73
2021/01/27 07:38:33;;;;;;;42.87;26.83;;;;;;;;;;5055487;28;20461;-73
2021/01/27 07:41:05;;;;;;;37.17;23.47;;;;;;;;;;5080253;28;20456;-73
2021/01/27 07:43:38;;;;;;;40.30;25.87;;;;;;;;;;5095487;28;20462;-73
2021/01/27 07:46:08;;;;;;;43.87;26.20;;;;;;;;;;5087096;28;20469;-73
2021/01/27 07:48:39;;;;;;;38.33;25.03;;;;;;;;;;5076358;28;20465;-73
2021/01/27 07:51:10;;;;;;;32.10;22.90;;;;;;;;;;5075994;28;20529;-72
2021/01/27 07:53:39;;;;;;;42.50;23.90;;;;;;;;;;5075764;28;20872;-72
2021/01/27 07:56:11;;;;;;;38.73;25.20;;;;;;;;;;5074830;28;20441;-72
2021/01/27 07:58:43;;;;;;;36.70;23.17;;;;;;;;;;5075289;28;20453;-72
2021/01/27 08:01:12;;;;;;;40.27;25.33;;;;;;;;;;5075499;28;20464;-73
2021/01/27 08:03:43;;;;;;;40.50;23.50;;;;;;;;;;5075062;28;20537;-73
2021/01/27 08:06:13;;;;;;;35.37;20.50;;;;;;;;;;5075516;28;20480;-73
2021/01/27 08:08:45;;;;;;;37.23;23.50;;;;;;;;;;5073000;28;20470;-73
2021/01/27 08:11:14;;;;;;;39.10;23.13;;;;;;;;;;5074820;28;20450;-73
2021/01/27 08:13:43;;;;;;;40.77;23.13;;;;;;;;;;5075941;28;20513;-73
2021/01/27 08:16:25;;;;;;;42.33;25.90;;;;;;;;;;5075871;28;20543;-72
2021/01/27 08:19:09;;;;;;;40.73;24.70;;;;;;;;;;5074786;28;20453;-73
2021/01/27 08:21:51;;;;;;;55.53;32.50;;;;;;;;;;5074131;28;20460;-73
2021/01/27 08:24:34;;;;;;;46.43;27.93;;;;;;;;;;5074181;28;20453;-72
2021/01/27 08:27:17;;;;;;;54.50;29.33;;;;;;;;;;5059488;28;20509;-73
2021/01/27 08:30:07;;;;;;;47.87;30.30;;;;;;;;;;5074495;28;20506;-71
2021/01/27 08:32:35;;;;;;;47.87;28.17;;;;;;;;;;5076253;28;20447;-73
2021/01/27 08:35:06;;;;;;;45.83;29.93;;;;;;;;;;5096088;28;20459;-72
2021/01/27 08:37:35;;;;;;;39.33;23.67;;;;;;;;;;5094538;28;20868;-73
2021/01/27 08:40:07;;;;;;;35.23;20.10;;;;;;;;;;5092958;28;20875;-72
2021/01/27 08:42:45;;;;;;;31.53;20.47;;;;;;;;;;5095070;28;20458;-73
2021/01/27 08:45:28;;;;;;;44.10;25.20;;;;;;;;;;5095056;28;20491;-72
2021/01/27 08:47:56;;;;;;;40.40;24.10;;;;;;;;;;5094210;28;20813;-72
2021/01/27 08:50:38;;;;;;;37.20;22.83;;;;;;;;;;5094605;28;20871;-72
2021/01/27 08:53:11;;;;;;;35.10;23.70;;;;;;;;;;5073003;28;20472;-72
2021/01/27 08:55:54;;;;;;;43.57;26.03;;;;;;;;;;5055263;28;20779;-72
2021/01/27 08:58:26;;;;;;;34.40;23.23;;;;;;;;;;5054942;28;20508;-72
2021/01/27 09:00:56;;;;;;;33.27;21.83;;;;;;;;;;5068486;28;20449;-73
2021/01/27 09:03:42;;;;;;;35.47;21.10;;;;;;;;;;5074247;28;20454;-71
2021/01/27 09:06:22;;;;;;;31.10;19.23;;;;;;;;;;5075035;28;20546;-74
2021/01/27 09:08:50;;;;;;;32.67;19.80;;;;;;;;;;5075010;28;20892;-72
2021/01/27 09:11:18;;;;;;;30.33;20.10;;;;;;;;;;5074699;28;20461;-72
2021/01/27 09:13:46;;;;;;;31.23;18.47;;;;;;;;;;5070760;28;20563;-73
2021/01/27 09:16:16;;;;;;;38.43;20.40;;;;;;;;;;5075159;28;20573;-71
2021/01/27 09:18:44;;;;;;;28.07;17.60;;;;;;;;;;5074380;28;20461;-72
2021/01/27 09:21:13;;;;;;;28.03;17.07;;;;;;;;;;5075317;28;20788;-72
2021/01/27 09:23:41;;;;;;;30.17;19.27;;;;;;;;;;5075225;28;20453;-72
2021/01/27 09:26:14;;;;;;;24.20;15.90;;;;;;;;;;5075303;28;20496;-71
2021/01/27 09:28:41;;;;;;;30.13;17.83;;;;;;;;;;5071742;28;20450;-72
2021/01/27 09:31:17;;;;;;;18.60;10.60;;;;;;;;;;5054847;28;20457;-72
2021/01/27 09:33:44;;;;;;;30.20;19.20;;;;;;;;;;5054995;28;20551;-72
2021/01/27 09:36:14;;;;;;;22.93;14.77;;;;;;;;;;5055897;28;20446;-72
2021/01/27 09:38:42;;;;;;;23.50;15.33;;;;;;;;;;5058441;28;20490;-72
2021/01/27 09:41:10;;;;;;;18.33;11.83;;;;;;;;;;5058681;28;20453;-72
2021/01/27 09:43:41;;;;;;;23.27;13.90;;;;;;;;;;5060636;28;20504;-73
2021/01/27 09:46:21;;;;;;;22.10;13.67;;;;;;;;;;5078660;28;20492;-72
2021/01/27 09:48:49;;;;;;;20.53;12.20;;;;;;;;;;5061174;28;20839;-72
2021/01/27 09:51:20;;;;;;;21.27;13.47;;;;;;;;;;5059942;28;20537;-72
2021/01/27 09:53:47;;;;;;;20.80;14.20;;;;;;;;;;5059045;28;20879;-72
2021/01/27 09:56:16;;;;;;;17.00;11.93;;;;;;;;;;5060261;28;20458;-74
2021/01/27 09:58:44;;;;;;;19.53;10.97;;;;;;;;;;5058779;28;20443;-72
2021/01/27 10:01:16;;;;;;;18.93;10.57;;;;;;;;;;5077305;28;20453;-71
2021/01/27 10:03:45;;;;;;;19.10;11.10;;;;;;;;;;5073442;28;20532;-72
2021/01/27 10:06:31;;;;;;;16.67;11.13;;;;;;;;;;5055950;28;20490;-73
2021/01/27 10:08:59;;;;;;;17.10;8.20;;;;;;;;;;5058065;28;20533;-72
2021/01/27 10:11:30;;;;;;;16.97;11.37;;;;;;;;;;5056828;28;20454;-72
2021/01/27 10:14:02;;;;;;;21.60;13.00;;;;;;;;;;5056334;28;20466;-71
2021/01/27 10:16:29;;;;;;;13.00;7.13;;;;;;;;;;5057425;28;20454;-72
2021/01/27 10:19:05;;;;;;;15.27;7.60;;;;;;;;;;5057405;28;20467;-71
2021/01/27 10:21:33;;;;;;;15.90;9.17;;;;;;;;;;5057378;28;20505;-72
2021/01/27 10:24:00;;;;;;;18.00;8.43;;;;;;;;;;5056973;28;20460;-72
2021/01/27 10:26:39;;;;;;;13.03;8.23;;;;;;;;;;5057055;28;20493;-71
2021/01/27 10:29:27;;;;;;;11.67;7.83;;;;;;;;;;5073170;28;20806;-71
2021/01/27 10:31:56;;;;;;;12.53;8.43;;;;;;;;;;5056429;28;20454;-71
2021/01/27 10:34:44;;;;;;;11.33;8.57;;;;;;;;;;5055124;28;20465;-71
2021/01/27 10:37:33;;;;;;;13.50;9.43;;;;;;;;;;5052186;28;20559;-71
2021/01/27 10:40:34;;;;;;;11.90;7.80;;;;;;;;;;5056890;28;20469;-71
2021/01/27 10:43:02;;;;;;;14.67;8.77;;;;;;;;;;4964483;28;20804;-71
2021/01/27 10:45:39;;;;;;;11.67;7.33;;;;;;;;;;5040929;28;20497;-72
2021/01/27 10:48:18;;;;;;;13.37;8.33;;;;;;;;;;5056431;28;20549;-73
2021/01/27 10:50:46;;;;;;;13.63;8.60;;;;;;;;;;5057166;28;20450;-72
2021/01/27 10:53:16;;;;;;;11.10;8.10;;;;;;;;;;5057148;28;20496;-73
2021/01/27 10:55:44;;;;;;;14.30;9.17;;;;;;;;;;5056297;28;21090;-72
2021/01/27 10:58:14;;;;;;;15.33;8.40;;;;;;;;;;5056449;28;20450;-72
2021/01/27 11:00:42;;;;;;;14.20;8.73;;;;;;;;;;5061175;28;20916;-73
2021/01/27 11:03:10;;;;;;;11.23;8.00;;;;;;;;;;5067283;28;20454;-72
2021/01/27 11:05:38;;;;;;;16.00;9.10;;;;;;;;;;5057235;28;20490;-73
2021/01/27 11:08:06;;;;;;;11.30;7.17;;;;;;;;;;5057406;28;20460;-72
2021/01/27 11:10:39;;;;;;;11.57;7.00;;;;;;;;;;5057601;28;20895;-74
2021/01/27 11:13:06;;;;;;;15.90;8.17;;;;;;;;;;5058768;28;20525;-73
2021/01/27 11:15:36;;;;;;;11.97;8.70;;;;;;;;;;5076114;28;20486;-73
2021/01/27 11:18:04;;;;;;;12.30;8.40;;;;;;;;;;5076584;28;20727;-73
2021/01/27 11:20:40;;;;;;;9.50;6.67;;;;;;;;;;5076370;28;20454;-74
2021/01/27 11:23:08;;;;;;;9.70;7.57;;;;;;;;;;5065721;28;20458;-73
2021/01/27 11:25:41;;;;;;;11.67;6.00;;;;;;;;;;5057002;28;20517;-72
2021/01/27 11:28:08;;;;;;;11.50;7.30;;;;;;;;;;5061541;28;20842;-75
2021/01/27 11:30:36;;;;;;;9.70;6.30;;;;;;;;;;5076036;28;20449;-74
2021/01/27 11:33:06;;;;;;;10.60;6.37;;;;;;;;;;5068164;28;20492;-74
2021/01/27 11:35:34;;;;;;;11.13;7.03;;;;;;;;;;5065008;28;20557;-74
2021/01/27 11:38:02;;;;;;;10.77;7.10;;;;;;;;;;5076477;28;20457;-74
2021/01/27 11:40:30;;;;;;;10.87;6.10;;;;;;;;;;5070406;28;20942;-74
2021/01/27 11:43:01;;;;;;;10.63;6.57;;;;;;;;;;5060872;28;20454;-74
2021/01/27 11:45:30;;;;;;;9.53;6.60;;;;;;;;;;5057261;28;20501;-74
2021/01/27 11:47:58;;;;;;;9.07;5.93;;;;;;;;;;5074722;28;20468;-74
2021/01/27 11:50:28;;;;;;;8.93;5.53;;;;;;;;;;5074944;28;20877;-73
2021/01/27 11:52:58;;;;;;;12.97;8.30;;;;;;;;;;5074660;28;20468;-74
2021/01/27 11:55:26;;;;;;;11.50;7.20;;;;;;;;;;5074484;28;20463;-73
2021/01/27 11:57:54;;;;;;;15.43;5.80;;;;;;;;;;5074264;28;20453;-73
2021/01/27 12:00:25;;;;;;;7.70;5.40;;;;;;;;;;5074725;28;20877;-73
2021/01/27 12:02:53;;;;;;;8.83;6.10;;;;;;;;;;5076482;28;20541;-72
2021/01/27 12:05:20;;;;;;;9.03;6.30;;;;;;;;;;5075539;28;20488;-73
2021/01/27 12:07:48;;;;;;;12.03;5.80;;;;;;;;;;5072118;28;20463;-73
2021/01/27 12:10:16;;;;;;;10.37;5.83;;;;;;;;;;5064925;28;20584;-72
2021/01/27 12:12:44;;;;;;;11.03;6.70;;;;;;;;;;5069888;28;20449;-71
2021/01/27 12:15:12;;;;;;;9.17;5.60;;;;;;;;;;5075050;28;20458;-72
2021/01/27 12:17:51;;;;;;;9.83;5.23;;;;;;;;;;5076164;28;20469;-73
2021/01/27 12:20:19;;;;;;;7.87;5.00;;;;;;;;;;5073672;28;20457;-73
2021/01/27 12:22:46;;;;;;;6.80;5.03;;;;;;;;;;5074122;28;20798;-73
2021/01/27 12:25:15;;;;;;;10.73;5.70;;;;;;;;;;5074479;28;20484;-74
2021/01/27 12:27:42;;;;;;;7.03;4.60;;;;;;;;;;5053883;28;20478;-74
2021/01/27 12:30:14;;;;;;;8.10;5.23;;;;;;;;;;5058252;28;20453;-74
2021/01/27 12:32:41;;;;;;;10.93;5.60;;;;;;;;;;5071549;28;20454;-74
2021/01/27 12:35:11;;;;;;;8.77;5.40;;;;;;;;;;5073733;28;20466;-74
2021/01/27 12:37:41;;;;;;;7.87;4.70;;;;;;;;;;5075229;28;20451;-73
2021/01/27 12:40:10;;;;;;;12.90;5.87;;;;;;;;;;5067091;28;20467;-74
2021/01/27 12:42:37;;;;;;;8.90;5.50;;;;;;;;;;5073611;28;20540;-74
2021/01/27 12:45:05;;;;;;;7.83;5.33;;;;;;;;;;5072829;28;20489;-73
2021/01/27 12:47:33;;;;;;;8.23;5.17;;;;;;;;;;5054803;28;20450;-74
2021/01/27 12:50:09;;;;;;;9.20;5.17;;;;;;;;;;5054395;28;20859;-73
2021/01/27 12:52:55;;;;;;;8.13;5.43;;;;;;;;;;5052604;28;20544;-73
2021/01/27 12:55:37;;;;;;;8.43;5.50;;;;;;;;;;5052039;28;20555;-73
2021/01/27 12:58:05;;;;;;;8.23;5.37;;;;;;;;;;5063392;28;20451;-73
2021/01/27 13:00:32;;;;;;;8.97;5.50;;;;;;;;;;5065689;28;20465;-73
2021/01/27 13:03:00;;;;;;;8.07;5.30;;;;;;;;;;5059030;28;20454;-72
2021/01/27 13:05:28;;;;;;;9.43;5.80;;;;;;;;;;5064752;28;20505;-74
2021/01/27 13:07:56;;;;;;;6.80;4.77;;;;;;;;;;5059297;28;20458;-74
2021/01/27 13:10:29;;;;;;;7.13;5.60;;;;;;;;;;5064062;28;20457;-74
2021/01/27 13:12:58;;;;;;;8.37;6.37;;;;;;;;;;5061814;28;20885;-74
2021/01/27 13:15:26;;;;;;;9.07;6.30;;;;;;;;;;5060208;28;20464;-73
2021/01/27 13:17:59;;;;;;;7.23;5.13;;;;;;;;;;5075936;28;21037;-74
2021/01/27 13:20:34;;;;;;;8.77;5.87;;;;;;;;;;5078308;28;20457;-74
2021/01/27 13:23:04;;;;;;;8.37;5.53;;;;;;;;;;5075226;28;20461;-74
2021/01/27 13:25:34;;;;;;;8.97;5.73;;;;;;;;;;5072605;28;20775;-74
2021/01/27 13:28:04;;;;;;;8.20;5.90;;;;;;;;;;5074987;28;20478;-74
2021/01/27 13:30:33;;;;;;;9.50;5.80;;;;;;;;;;5068027;28;20453;-74
2021/01/27 13:33:01;;;;;;;7.47;5.10;;;;;;;;;;5078304;28;20503;-74
2021/01/27 13:35:32;;;;;;;6.57;4.90;;;;;;;;;;5070836;28;20453;-74
2021/01/27 13:37:59;;;;;;;10.00;5.40;;;;;;;;;;5066092;28;20863;-74
2021/01/27 13:40:28;;;;;;;6.50;5.07;;;;;;;;;;5058027;28;20462;-75
2021/01/27 13:42:57;;;;;;;9.20;6.57;;;;;;;;;;5058486;28;20456;-75
2021/01/27 13:45:26;;;;;;;6.90;5.00;;;;;;;;;;5074526;28;20588;-73
2021/01/27 13:47:56;;;;;;;8.83;5.77;;;;;;;;;;5067515;28;20452;-74
2021/01/27 13:50:24;;;;;;;8.93;6.13;;;;;;;;;;5058290;28;20885;-73
2021/01/27 13:55:39;;;;;;;7.97;5.17;;;;;;;;;;5056234;28;20459;-74
2021/01/27 13:58:08;;;;;;;5.93;4.90;;;;;;;;;;5058353;28;20763;-73
2021/01/27 14:00:35;;;;;;;10.03;5.90;;;;;;;;;;5088615;28;20463;-74
2021/01/27 14:03:02;;;;;;;7.00;5.50;;;;;;;;;;5073315;28;20451;-72
2021/01/27 14:05:30;;;;;;;5.97;4.63;;;;;;;;;;5084986;28;20569;-73
2021/01/27 14:07:58;;;;;;;9.17;5.13;;;;;;;;;;5077260;28;20479;-74
2021/01/27 14:10:27;;;;;;;7.00;4.93;;;;;;;;;;5079090;28;20579;-74
2021/01/27 14:12:55;;;;;;;8.20;5.20;;;;;;;;;;5073949;28;20683;-74
2021/01/27 14:15:25;;;;;;;9.77;5.80;;;;;;;;;;5078786;28;20473;-74
2021/01/27 14:17:52;;;;;;;8.00;5.30;;;;;;;;;;5078794;28;20479;-72
2021/01/27 14:20:21;;;;;;;6.40;4.13;;;;;;;;;;5076711;28;20647;-74
2021/01/27 14:22:49;;;;;;;6.20;4.27;;;;;;;;;;5076922;28;20707;-74
2021/01/27 14:25:18;;;;;;;8.70;5.53;;;;;;;;;;5078020;28;20940;-74
2021/01/27 14:27:48;;;;;;;8.90;5.17;;;;;;;;;;5076195;28;20457;-74
2021/01/27 14:30:17;;;;;;;6.93;5.07;;;;;;;;;;5075635;28;21131;-74
2021/01/27 14:32:45;;;;;;;6.40;4.23;;;;;;;;;;5075238;28;20579;-73
2021/01/27 14:35:13;;;;;;;5.57;3.70;;;;;;;;;;5075863;28;20487;-73
2021/01/27 14:37:41;;;;;;;6.10;4.70;;;;;;;;;;5075761;28;20455;-74
2021/01/27 14:40:11;;;;;;;6.93;5.00;;;;;;;;;;5076119;28;20451;-73
2021/01/27 14:42:38;;;;;;;6.83;4.30;;;;;;;;;;5075596;28;20466;-73
2021/01/27 14:45:07;;;;;;;7.27;4.97;;;;;;;;;;5071945;28;20478;-73
2021/01/27 14:47:34;;;;;;;7.73;5.40;;;;;;;;;;5057573;28;20531;-73
2021/01/27 14:50:03;;;;;;;12.77;5.40;;;;;;;;;;5056359;28;20893;-73